Rap ucar surface

Weather.gov > Los Angeles, CA > Observations. Current Hazards. Current Conditions. Radar. Forecasts. Rivers and Lakes. Climate and Past Weather. Local Programs. More Observations: Rada r Satellite Marine Rainfall & Streams Upper Air Historical..

Page generated from http://weather.rap.ucar.edu/surface/ at Thu, 12 Oct 2023 16:27:36 UTC.NCAR-RAP Real-Time Weather Data Output produced by METARs form (07 October 2023 22:52 UTC) found at http://weather.rap.ucar.edu/surface/: Conditions at: KPGD observed ...

Did you know?

NCAR-RAP Real-Time Weather Data. Output produced by METARs form (12 October 2023 08:41 UTC) KCLE 120751Z 17003KT 10SM BKN085 BKN100 10/06 A2983 RMK AO2 SLP117 T01000061. KCLE 120651Z 16003KT 10SM BKN095 09/06 A2983 RMK AO2 SLP116 T00940056. KCLE 120551Z 16004KT 10SM OVC090 09/06 A2984 RMK AO2 …NCAR-RAP Real-Time Weather Data Output produced by METARs form (27 September 2023 04:53 UTC) found at http://weather.rap.ucar.edu/surface/: Conditions at: KRDU ... With NCAR, we promote partnership in a collaborative community of university and laboratory researchers dedicated to understanding the atmosphere and the interconnected processes that make up the ...

Page generated from http://weather.rap.ucar.edu/surface/ at Sat, 7 Oct 2023 22:39:38 UTC.These include land surface, marine surface, radiosonde, pibal and aircraft reports from the Global Telecommunications System (GTS), profiler and US radar derived winds, SSM/I oceanic winds and TCW retrievals, and satellite wind data from the National Environmental Satellite Data and Information Service (NESDIS).NCAR-RAP Real-Time Weather Data Output produced by METARs form (27 September 2023 04:53 UTC) found at http://weather.rap.ucar.edu/surface/: Conditions at: KRDU ...NCAR-RAP Real-Time Weather Data Output produced by METARs form (30 September 2023 08:02 UTC) found at http://weather.rap.ucar.edu/surface/: KGUY 300753Z AUTO 19013KT ...

Quick-look forecast charts. Click the Forecast tab above for more details. This material is based upon work supported by the National Center for Atmospheric Research, a major facility sponsored by the National Science Foundation and managed by the University Corporation for Atmospheric Research. Any opinions, findings and conclusions or ...Surface page: RAP Real-Time Weather End date: End time: Loop duration: Text observations Retrieve text format METARs: See stations.txt for a list of stations. Enter 4-letter ICAO id (s): Raw Translated Contour maps - Temperature - Moisture (dewpoint) - Winds/Sea-Level Pressure - 4-panel plot - Theta-E - 24-hour Precipitation ….

Reader Q&A - also see RECOMMENDED ARTICLES & FAQs. Rap ucar surface. Possible cause: Not clear rap ucar surface.

Forecast page: RAP Real-Time Weather. model plots or switch to or . Forecast Time (s): 00 hr 01 hr 02 hr. 03 hr 04 hr 05 hr. 06 hr 07 hr 08 hr. 09 hr 10 hr 11 hr. 12 hr 13 hr 14 hr.Page generated from http://weather.rap.ucar.edu/surface/ at Wed, 11 Oct 2023 22:57:38 UTC.

Plymouth State Allows you to create your own surface charts. NCAR/RAP Plotted surface maps, they keep about the past week on their site. Soundings. Wyoming Comprehensive sounding archive, goes back to the 1970s. NCDC Integrated Global Radiosonde Archive Long-term sounding archive in text format. Upper-air. Plymouth State Plot your own upper-air ...Page generated from http://weather.rap.ucar.edu/surface/ at Tue, 26 Sep 2023 08:15:56 UTC.Surface page: RAP Real-Time Weather End date: End time: Loop duration: Text observations Retrieve text format METARs: See stations.txt for a list of stations. Enter 4-letter ICAO id (s): Raw Translated Contour maps - Temperature - Moisture (dewpoint) - Winds/Sea-Level Pressure - 4-panel plot - Theta-E - 24-hour Precipitation544 million vehicle hours per year delay. 2.2 to 3.5 billion dollars annually is cost to trucking companies by weather-related delays. Source: Mitretek Systems. Since the late 1990s, RAL has played a pivotal national role bringing the surface transportation and weather communities together to increase traffic safety, efficiency, and mobility.0.5° Velocity. Background: black. gray-shaded terrain. color-shaded terrain. End date: Today 10 Oct 2023 09 Oct 2023 08 Oct 2023 07 Oct 2023 06 Oct 2023. End time:

Abstract The land surface model (LSM) described in this manuscript was originally developed as part of the NOAA Rapid Update Cycle (RUC) model development effort; with ongoing modifications, it is now used as an option for the WRF community model. The RUC model and its WRF-based NOAA successor, the Rapid Refresh (RAP), are …Atmospheric Surface Measurements and Evaluation; Cloud Computing and Software Containers; Data Assimilation; Data Services; Decision Support Systems; …

RJOI 040856Z 28005KT 9999 FEW030 FEW220 25/16 A2981 RMK AO2 SLP095 T02500161 55000. RJOI 040756Z 16008KT 9999 FEW030 FEW220 26/17 A2981 RMK AO2 SLP093 T02560172. RJOI 040656Z 16008KT 9999 FEW030 SCT240 27/16 A2980 RMK AO2 SLP092 T02670161.View cloud images as seen from space by geostationary satellites. View reflectivity and velocity images from NEXRAD doppler radars. See the surface weather conditions reported nearest you. See winds, temperature, and moisture well above the earth's surface. Become your own weather forecaster using these guidance tools.

nails for 11 12 year olds The best page to find current conditions on is this one here: http://www.rap.ucar.edu/weather/surface/. This is the page I use every day as a meteorologist ...NCAR-RAP Real-Time Weather Data Output produced by METARs form (10 October 2023 14:55 UTC) found at http://weather.rap.ucar.edu/surface/: KDCA 101352Z 21003KT 10SM ... amoeba sisters meiosis Page generated from http://weather.rap.ucar.edu/surface/ at Fri, 22 Sep 2023 22:41:44 UTC. ff14 positionals Surface page: RAP Real-Time Weather. End date: End time: Loop duration: Text observations. Retrieve text format METARs: See stations.txt for a list of stations. Enter 4-letter ICAO id (s): nc scratch off remaining prizes NCAR-RAP Real-Time Weather Data. RJAA 211700Z AUTO 21010KT 180V240 9999 FEW019 BKN170 BKN180 27/25 Q1006 NOSIG. RJAA 211630Z AUTO 21008KT 180V250 9999 BKN019 BKN180 OVC200 27/25 Q1006 NOSIG. RJAA 211600Z AUTO 21009KT 180V240 9999 FEW018 BKN210 27/25 Q1007 NOSIG. RJAA 211530Z AUTO … roblox the experiment NCAR-RAP Real-Time Weather Data Output produced by METARs form (02 May 2023 21:15 UTC) found at http://weather.rap.ucar.edu/surface/: Conditions at: KCOF observed 02 ... subhlaxmi cash and carry Images from GOES-East (16) and GOES-West (18) satellites: Visible (color) Visible (grayscale) Infrared - Shortwave Infrared - LongwavePage generated from http://weather.rap.ucar.edu/surface/ at Tue, 2 May 2023 18:16:29 UTC.http://weather.rap.ucar.edu/surface/ at Tue, 2 May 2023 18:16:29 UTC.NCAR-RAP Real-Time Weather Data Output produced by METARs form (21 September 2023 06:37 UTC) found at http://weather.rap.ucar.edu/surface/: KGFK 210553Z AUTO 30006KT ... pet fbi These include land surface, marine surface, radiosonde, pibal and aircraft reports from the Global Telecommunications System (GTS), profiler and US radar derived winds, SSM/I oceanic winds and TCW retrievals, and satellite wind data from the National Environmental Satellite Data and Information Service (NESDIS). training grounds fgo View reflectivity and velocity images from NEXRAD doppler radars. See the surface weather conditions reported nearest you. See winds, temperature, and moisture well above the earth's surface. Become your own weather forecaster using these guidance tools.Jan 18, 2023 · Page generated from http://weather.rap.ucar.edu/surface/ at Thu, 12 Oct 2023 19:13:18 UTC. ring outage map Page generated from http://weather.rap.ucar.edu/surface/ at Fri, 13 Oct 2023 15:47:34 UTC. press and sun obitsdispatch from sorting center Page generated from http://weather.rap.ucar.edu/surface/ at Fri, 13 Oct 2023 10:12:42 UTC.Your home will take a lot of wear and tear—but you can undo more of it than you realize. As frustrating as they are when you first spot them, not all scratches are permanent damage on your prized home surfaces. With a little effort, some sc... restaurants in knoxville ia Page generated from http://weather.rap.ucar.edu/surface/ at Sun, 17 Sep 2023 02:53:44 UTC.Page generated from http://weather.rap.ucar.edu/surface/ at Thu, 21 Sep 2023 17:59:41 UTC. hot spring county jail inmate roster Quick-look forecast charts. Click the Forecast tab above for more details. This material is based upon work supported by the National Center for Atmospheric Research, a major facility sponsored by the National Science Foundation and managed by the University Corporation for Atmospheric Research. Any opinions, findings and conclusions or ...NCAR-RAP Real-Time Weather Data Output produced by METARs form (17 September 2023 01:27 UTC) found at http://weather.rap.ucar.edu/surface/: KATL 170052Z 13005KT 10SM ... deepwoken charisma talents Atmospheric Surface Measurements and Evaluation; Cloud Computing and Software Containers; Data Assimilation; Data Services; Decision Support Systems; … widow crosshair Page generated from http://weather.rap.ucar.edu/surface/ at Thu, 12 Oct 2023 06:24:38 UTC. john deere gt245 parts Page generated from http://weather.rap.ucar.edu/surface/ at Sun, 8 Oct 2023 02:46:58 UTC.NCAR-RAP Real-Time Weather Data Output produced by METARs form (04 October 2023 12:42 UTC) found at http://weather.rap.ucar.edu/surface/: KCLT 041152Z 36004KT 6SM BR ... Surface page: RAP Real-Time Weather. End date: End time: Loop duration: Text observations. Retrieve text format METARs: See stations.txt for a list of stations. Enter 4-letter ICAO id (s): whats behind the moon UCAR/RAP (Surface, Upper Air, Satellite and Radar) UNISYS (National and regional analyses and data) National Weather Service Maps: US Surface Maps: NCEP Weather … urban air macon ga Dips can be a great way to feed a crowd — or just a fun and tasty snack for one. While dips sometimes get a bad rap on the nutrition front, there are lots of healthy ingredients to try! And the good news is that the healthiest dips are also... tooth numbering quiz 19 dec. 2019 ... Surface observations in the Pacific Northwest. Generated 0547 UTC 15-12-19. http://weather.rap.ucar.edu/surface/displaySfc.php?region=lws. parkland scheduler Page generated from http://weather.rap.ucar.edu/surface/ at Mon, 25 Sep 2023 04:44:52 UTC.Page generated from http://weather.rap.ucar.edu/surface/ at Sun, 8 Oct 2023 20:56:07 UTC. KGTU 170756Z AUTO 30005KT 10SM CLR 22/20 A3006 RMK AO2 SLP176 T02220200 PNO $. KGTU 170656Z AUTO 31003KT 10SM CLR 22/20 A3007 RMK AO2 SLP180 T02170200 PNO $. KGTU 170556Z AUTO 00000KT 10SM CLR 22/20 A3008 RMK AO2 SLP183 6//// T02170200 10261 20211 402670200 50000 PNO $. ]